KLRU/LRU METAR and TAF weather

Enter ICAO airport designator
Station Type Date Time Source
KLRU METAR 2019/02/20 23:35 UTC NOAA

KLRU 202335Z AUTO 22009KT 10SM CLR 11/M13 A2980 RMK AO2 T01111135


Station Type Date Time Source
KLRU Decoded METAR 2019/02/20 23:35 UTC NOAA

Las Cruces, Las Cruces International Airport, NM, United States (KLRU) 32-17-22N 106-55-19W
Feb 20, 2019 - 06:35 PM EST / 2019.02.20 2335 UTC
Wind: from the SW (220 degrees) at 10 MPH (9 KT):0
Visibility: 10 mile(s):0
Sky conditions: clear
Temperature: 52.0 F (11.1 C)
Dew Point: 7.7 F (-13.5 C)
Relative Humidity: 16%
Pressure (altimeter): 29.8 in. Hg (1009 hPa)
ob: KLRU 202335Z AUTO 22009KT 10SM CLR 11/M13 A2980 RMK AO2 T01111135
cycle: 23

Station Type Date Time Source
KLRU TAF 2019/02/20 18:22 UTC NOAA

TAF KLRU 201720Z 2018/2118 25010G17KT P6SM SCT250
FM210100 19006KT P6SM SCT150 BKN250
FM211600 22014G24KT P6SM SCT120 BKN200


Example: see airport list